Time;durP1;ratioP1;P1;durP2;ratioP2;P2;SDS_P1;SDS_P2;PMS_P1;PMS_P2;Temp;Humidity;BMP_temperature;BMP_pressure;BME280_temperature;BME280_humidity;BME280_pressure;Samples;Min_cycle;Max_cycle;Signal;HPM_P1;HPM_P2
2023/08/10 00:02:23;;;;;;;1999.90;999.90;;;;;;;15.44;100.00;94554.19;5006676;28;20191;-53
2023/08/10 00:04:48;;;;;;;1999.90;999.90;;;;;;;15.49;100.00;94545.34;5006336;28;20203;-56
2023/08/10 00:07:14;;;;;;;1999.90;999.90;;;;;;;15.45;100.00;94550.19;5005899;28;20187;-55
2023/08/10 00:09:39;;;;;;;1999.90;999.90;;;;;;;15.44;100.00;94543.16;5006558;28;20204;-54
2023/08/10 00:12:05;;;;;;;1999.90;999.90;;;;;;;15.42;100.00;94551.13;5006010;28;20199;-56
2023/08/10 00:14:30;;;;;;;1999.90;999.90;;;;;;;15.39;100.00;94552.03;5006065;28;20234;-52
2023/08/10 00:16:56;;;;;;;1999.90;999.90;;;;;;;15.35;100.00;94559.66;5006270;28;20202;-55
2023/08/10 00:19:21;;;;;;;1999.90;999.90;;;;;;;15.34;100.00;94554.59;5006242;28;20192;-55
2023/08/10 00:21:46;;;;;;;1999.90;999.90;;;;;;;15.39;100.00;94554.00;5006713;28;20238;-53
2023/08/10 00:24:12;;;;;;;1999.90;999.90;;;;;;;15.41;100.00;94552.34;5006241;28;20226;-54
2023/08/10 00:26:37;;;;;;;1999.90;999.90;;;;;;;15.45;100.00;94549.44;5005758;28;20203;-54
2023/08/10 00:29:03;;;;;;;1999.90;999.90;;;;;;;15.46;100.00;94546.25;5006425;28;20205;-55
2023/08/10 00:31:29;;;;;;;1999.90;999.90;;;;;;;15.42;100.00;94540.13;5005594;28;20211;-52
2023/08/10 00:33:54;;;;;;;1999.90;999.90;;;;;;;15.41;100.00;94530.31;5006210;28;20270;-55
2023/08/10 00:36:19;;;;;;;1999.90;999.90;;;;;;;15.34;100.00;94538.06;5006256;28;20195;-51
2023/08/10 00:38:45;;;;;;;1999.90;999.90;;;;;;;15.24;100.00;94540.03;5005971;28;20195;-53
2023/08/10 00:41:10;;;;;;;1999.90;999.90;;;;;;;15.15;100.00;94526.25;5005638;28;20191;-55
2023/08/10 00:43:36;;;;;;;1999.90;999.90;;;;;;;15.11;100.00;94531.13;5005723;28;20200;-56
2023/08/10 00:46:01;;;;;;;1999.90;999.90;;;;;;;15.05;100.00;94532.91;5005513;28;20191;-55
2023/08/10 00:48:27;;;;;;;1999.90;999.90;;;;;;;15.03;100.00;94523.59;5005692;28;20215;-53
2023/08/10 00:50:53;;;;;;;1999.90;999.90;;;;;;;14.93;100.00;94525.53;5005723;28;20215;-56
2023/08/10 00:53:19;;;;;;;1999.90;999.90;;;;;;;14.88;100.00;94534.41;5005434;28;20189;-52
2023/08/10 00:55:51;;;;;;;1999.90;999.90;;;;;;;14.82;100.00;94530.69;5005604;28;20515;-51
2023/08/10 00:58:19;;;;;;;1999.90;999.90;;;;;;;14.79;100.00;94526.09;5005855;28;20196;-53
2023/08/10 01:00:45;;;;;;;1999.90;999.90;;;;;;;14.76;100.00;94499.53;5005686;28;20191;-54
2023/08/10 01:03:10;;;;;;;1999.90;999.90;;;;;;;14.71;100.00;94502.09;5005945;28;20246;-55
2023/08/10 01:05:43;;;;;;;1999.90;999.90;;;;;;;14.65;100.00;94493.69;5005259;28;20223;-53
2023/08/10 01:08:31;;;;;;;1999.90;999.90;;;;;;;14.59;100.00;94495.47;5005637;28;20187;-52
2023/08/10 01:11:15;;;;;;;1999.90;999.90;;;;;;;14.54;100.00;94509.81;5004963;28;20195;-52
2023/08/10 01:14:01;;;;;;;1999.90;999.90;;;;;;;14.50;100.00;94519.38;5005057;28;20225;-53
2023/08/10 01:16:28;;;;;;;1999.90;999.90;;;;;;;14.42;100.00;94527.13;5005400;28;20196;-55
2023/08/10 01:18:55;;;;;;;1999.90;999.90;;;;;;;14.42;100.00;94526.38;5004806;28;20196;-53
2023/08/10 01:21:29;;;;;;;1999.90;999.90;;;;;;;14.35;100.00;94527.38;5005519;28;20206;-53
2023/08/10 01:23:57;;;;;;;1999.90;999.90;;;;;;;14.32;100.00;94531.03;5005327;28;20246;-57
2023/08/10 01:26:26;;;;;;;1999.90;999.90;;;;;;;14.29;100.00;94534.69;5005280;28;20191;-55
2023/08/10 01:28:52;;;;;;;1999.90;999.90;;;;;;;14.30;100.00;94538.16;5005274;28;20258;-51
2023/08/10 01:31:17;;;;;;;1999.90;999.90;;;;;;;14.32;100.00;94538.50;5004791;28;20211;-52
2023/08/10 01:33:43;;;;;;;1999.90;999.90;;;;;;;14.35;100.00;94546.59;5005235;28;20188;-55
2023/08/10 01:36:08;;;;;;;1999.90;999.90;;;;;;;14.37;100.00;94544.19;5004755;28;20196;-54
2023/08/10 01:38:33;;;;;;;1999.90;999.90;;;;;;;14.40;100.00;94537.03;5004890;28;20196;-54
2023/08/10 01:40:59;;;;;;;1999.90;999.90;;;;;;;14.39;100.00;94544.47;5005104;28;20179;-50
2023/08/10 01:43:25;;;;;;;1999.90;999.90;;;;;;;14.37;100.00;94535.94;5005074;28;20230;-53
2023/08/10 01:45:54;;;;;;;1999.90;999.90;;;;;;;14.36;100.00;94537.16;5004975;28;20195;-53
2023/08/10 01:48:32;;;;;;;1999.90;999.90;;;;;;;14.33;100.00;94540.81;5004485;28;20208;-53
2023/08/10 01:51:01;;;;;;;1999.90;999.90;;;;;;;14.34;100.00;94539.56;5004719;28;20214;-52
2023/08/10 01:53:35;;;;;;;1999.90;999.90;;;;;;;14.37;100.00;94549.69;5004714;28;20192;-54
2023/08/10 01:56:01;;;;;;;1999.90;999.90;;;;;;;14.41;100.00;94536.56;5004569;28;20184;-53
2023/08/10 01:58:26;;;;;;;1999.90;999.90;;;;;;;14.43;100.00;94531.41;5004420;28;20262;-51
2023/08/10 02:00:52;;;;;;;1999.90;999.90;;;;;;;14.47;100.00;94537.53;5004816;28;20191;-51
2023/08/10 02:03:19;;;;;;;1999.90;999.90;;;;;;;14.52;100.00;94520.47;5004540;28;20199;-52
2023/08/10 02:05:44;;;;;;;1999.90;999.90;;;;;;;14.57;100.00;94519.13;5004494;28;20203;-50
2023/08/10 02:08:09;;;;;;;1999.90;999.90;;;;;;;14.60;100.00;94521.72;5004695;28;20207;-51
2023/08/10 02:10:35;;;;;;;1999.90;999.90;;;;;;;14.63;100.00;94518.09;5004689;28;20198;-55
2023/08/10 02:13:00;;;;;;;1999.90;999.90;;;;;;;14.67;100.00;94518.72;5004565;28;20211;-54
2023/08/10 02:15:26;;;;;;;1999.90;999.90;;;;;;;14.65;100.00;94515.66;5004612;28;20206;-52
2023/08/10 02:17:51;;;;;;;1999.90;999.90;;;;;;;14.70;100.00;94504.06;5004449;28;20203;-53
2023/08/10 02:20:17;;;;;;;1999.90;999.90;;;;;;;14.72;100.00;94503.63;5003985;28;20263;-55
2023/08/10 02:22:48;;;;;;;1999.90;999.90;;;;;;;14.72;100.00;94498.13;5004269;28;20223;-52
2023/08/10 02:25:14;;;;;;;1999.90;999.90;;;;;;;14.73;100.00;94489.44;5004305;28;20192;-53
2023/08/10 02:27:40;;;;;;;1999.90;999.90;;;;;;;14.74;100.00;94487.44;5004393;28;20219;-54
2023/08/10 02:30:06;;;;;;;1999.90;999.90;;;;;;;14.76;100.00;94461.03;5005374;28;20219;-53
2023/08/10 02:32:32;;;;;;;1999.90;999.90;;;;;;;14.80;100.00;94466.38;5008215;28;20211;-55
2023/08/10 02:34:57;;;;;;;1999.90;999.90;;;;;;;14.85;100.00;94439.06;5007865;28;20198;-53
2023/08/10 02:37:23;;;;;;;1999.90;999.90;;;;;;;14.84;100.00;94423.81;5008486;28;20209;-51
2023/08/10 02:39:48;;;;;;;1999.90;999.90;;;;;;;14.88;100.00;94418.16;5008410;28;20192;-52
2023/08/10 02:42:14;;;;;;;1999.90;999.90;;;;;;;14.88;100.00;94413.44;5008440;28;20212;-51
2023/08/10 02:44:39;;;;;;;1999.90;999.90;;;;;;;14.89;100.00;94414.94;5008020;28;20212;-53
2023/08/10 02:47:05;;;;;;;1999.90;999.90;;;;;;;14.91;100.00;94404.28;5007980;28;20387;-49
2023/08/10 02:49:30;;;;;;;1999.90;999.90;;;;;;;14.92;100.00;94392.06;5007698;28;20356;-53
2023/08/10 02:51:55;;;;;;;1999.90;999.90;;;;;;;14.96;100.00;94397.41;5007726;28;20324;-55
2023/08/10 02:54:21;;;;;;;1999.90;999.90;;;;;;;14.94;100.00;94389.59;5007404;28;20226;-54
2023/08/10 02:56:46;;;;;;;1999.90;999.90;;;;;;;14.97;100.00;94399.69;5007838;28;20195;-52
2023/08/10 02:59:11;;;;;;;1999.90;999.90;;;;;;;14.97;100.00;94405.19;5007586;28;20187;-53
2023/08/10 03:01:37;;;;;;;1999.90;999.90;;;;;;;14.96;100.00;94414.66;5007766;28;20195;-52
2023/08/10 03:04:02;;;;;;;1999.90;999.90;;;;;;;14.95;100.00;94413.16;5007661;28;20187;-55
2023/08/10 03:06:28;;;;;;;1999.90;999.90;;;;;;;14.93;100.00;94410.06;5007340;28;20214;-51
2023/08/10 03:08:54;;;;;;;1999.90;999.90;;;;;;;14.92;100.00;94419.53;5008116;28;20246;-53
2023/08/10 03:11:19;;;;;;;1999.90;999.90;;;;;;;14.91;100.00;94423.53;5007551;28;20204;-53
2023/08/10 03:13:44;;;;;;;1999.90;999.90;;;;;;;14.90;100.00;94432.97;5007681;28;20249;-52
2023/08/10 03:16:10;;;;;;;1999.90;999.90;;;;;;;14.88;100.00;94435.41;5007293;28;20192;-54
2023/08/10 03:18:35;;;;;;;1999.90;999.90;;;;;;;14.87;100.00;94439.41;5007621;28;20195;-53
2023/08/10 03:21:01;;;;;;;1999.90;999.90;;;;;;;14.88;100.00;94434.66;5007120;28;20218;-55
2023/08/10 03:23:27;;;;;;;1999.90;999.90;;;;;;;14.89;100.00;94436.94;5007313;28;20191;-54
2023/08/10 03:25:52;;;;;;;1999.90;999.90;;;;;;;14.85;100.00;94428.06;5007309;28;20238;-56
2023/08/10 03:28:17;;;;;;;1999.90;999.90;;;;;;;14.88;100.00;94434.66;5007055;28;20191;-56
2023/08/10 03:30:43;;;;;;;1999.90;999.90;;;;;;;14.87;100.00;94428.41;5007074;28;20184;-54
2023/08/10 03:33:08;;;;;;;1999.90;999.90;;;;;;;14.89;100.00;94436.16;5007177;28;20227;-52
2023/08/10 03:35:34;;;;;;;1999.90;999.90;;;;;;;14.86;100.00;94440.59;5007038;28;20199;-54
2023/08/10 03:38:00;;;;;;;1999.90;999.90;;;;;;;14.86;100.00;94421.34;5006785;28;20186;-51
2023/08/10 03:40:25;;;;;;;1999.90;999.90;;;;;;;14.86;100.00;94421.34;5007603;28;20207;-54
2023/08/10 03:42:50;;;;;;;1999.90;999.90;;;;;;;14.83;100.00;94422.25;5006338;28;20200;-54
2023/08/10 03:45:16;;;;;;;1999.90;999.90;;;;;;;14.82;100.00;94411.75;5007293;28;20270;-51
2023/08/10 03:47:42;;;;;;;1999.90;999.90;;;;;;;14.82;100.00;94417.97;5006987;28;20195;-52
2023/08/10 03:50:08;;;;;;;1999.90;999.90;;;;;;;14.84;100.00;94418.31;5006654;28;20195;-54
2023/08/10 03:52:33;;;;;;;1999.90;999.90;;;;;;;14.83;100.00;94419.50;5006621;28;20208;-54
2023/08/10 03:54:59;;;;;;;1999.90;999.90;;;;;;;14.82;100.00;94425.47;5006668;28;20191;-52
2023/08/10 03:57:24;;;;;;;1999.90;999.90;;;;;;;14.82;100.00;94437.22;5006516;28;20188;-53
2023/08/10 03:59:50;;;;;;;1999.90;999.90;;;;;;;14.81;100.00;94438.44;5006536;28;20192;-54
2023/08/10 04:02:15;;;;;;;1999.90;999.90;;;;;;;14.80;100.00;94442.44;5006580;28;20218;-53
2023/08/10 04:04:40;;;;;;;1999.90;999.90;;;;;;;14.79;100.00;94443.63;5007045;28;20188;-54
2023/08/10 04:07:07;;;;;;;1999.90;999.90;;;;;;;14.78;100.00;94452.31;5006694;28;20476;-55
2023/08/10 04:09:33;;;;;;;1999.90;999.90;;;;;;;14.78;100.00;94458.59;5006867;28;20231;-54
2023/08/10 04:11:59;;;;;;;1999.90;999.90;;;;;;;14.78;100.00;94458.59;5006688;28;20235;-50
2023/08/10 04:14:25;;;;;;;1999.90;999.90;;;;;;;14.76;100.00;94474.78;5006218;28;20215;-53
2023/08/10 04:16:51;;;;;;;1999.90;999.90;;;;;;;14.75;100.00;94481.47;5006614;28;20199;-53
2023/08/10 04:19:16;;;;;;;1999.90;999.90;;;;;;;14.78;100.00;94477.84;5006655;28;20234;-53
2023/08/10 04:21:42;;;;;;;1999.90;999.90;;;;;;;14.81;100.00;94474.19;5006174;28;20203;-53
2023/08/10 04:24:07;;;;;;;1999.90;999.90;;;;;;;14.87;100.00;94485.34;5006319;28;20203;-53
2023/08/10 04:26:33;;;;;;;1999.90;999.90;;;;;;;14.93;100.00;94484.31;5005900;28;20202;-53
2023/08/10 04:28:58;;;;;;;1999.90;999.90;;;;;;;14.98;100.00;94472.72;5005964;28;20199;-52
2023/08/10 04:31:23;;;;;;;1999.90;999.90;;;;;;;14.99;100.00;94478.97;5005719;28;20218;-54
2023/08/10 04:33:48;;;;;;;1999.90;999.90;;;;;;;14.99;100.00;94490.75;5006038;28;20388;-54
2023/08/10 04:36:14;;;;;;;1999.90;999.90;;;;;;;15.00;100.00;94492.28;5005752;28;20391;-54
2023/08/10 04:38:39;;;;;;;1999.90;999.90;;;;;;;15.02;100.00;94500.06;5005900;28;20203;-53
2023/08/10 04:41:04;;;;;;;1999.90;999.90;;;;;;;14.99;100.00;94490.75;5005989;28;20225;-54
2023/08/10 04:43:30;;;;;;;1999.90;999.90;;;;;;;14.99;100.00;94488.00;4985702;28;20255;-53
2023/08/10 04:45:55;;;;;;;1999.90;999.90;;;;;;;14.99;100.00;94490.75;4969570;28;20213;-53
2023/08/10 04:48:20;;;;;;;1999.90;999.90;;;;;;;15.02;100.00;94498.09;4969280;28;20216;-54
2023/08/10 04:50:46;;;;;;;1999.90;999.90;;;;;;;15.04;100.00;94492.91;4969270;28;20204;-57
2023/08/10 04:53:11;;;;;;;1999.90;999.90;;;;;;;15.11;100.00;94481.63;4968382;28;20240;-53
2023/08/10 04:55:36;;;;;;;1999.90;999.90;;;;;;;15.24;100.00;94479.53;4969115;28;20204;-51
2023/08/10 04:58:02;;;;;;;1999.90;999.90;;;;;;;15.31;100.00;94483.97;4969054;28;20218;-52
2023/08/10 05:00:28;;;;;;;1999.90;999.90;;;;;;;15.59;100.00;94478.06;4969119;28;20200;-54
2023/08/10 05:02:53;;;;;;;1999.90;999.90;;;;;;;15.92;100.00;94479.00;4968707;28;20365;-54
2023/08/10 05:05:19;;;;;;;1999.90;999.90;;;;;;;16.04;100.00;94472.56;4968788;28;20204;-52
2023/08/10 05:07:45;;;;;;;1999.90;999.90;;;;;;;16.33;100.00;94480.34;4969067;28;20208;-53
2023/08/10 05:10:10;;;;;;;1999.90;999.90;;;;;;;16.26;100.00;94492.44;4968909;28;20247;-54
2023/08/10 05:12:37;;;;;;;1999.90;999.90;;;;;;;16.17;100.00;94517.25;4968735;28;20209;-55
2023/08/10 05:15:04;;;;;;;1999.90;999.90;;;;;;;16.03;100.00;94528.88;4995385;28;20215;-56
2023/08/10 05:17:30;;;;;;;1999.90;999.90;;;;;;;16.04;100.00;94535.94;5005261;28;20275;-58
2023/08/10 05:19:55;;;;;;;1999.90;999.90;;;;;;;16.05;100.00;94534.69;5005082;28;20239;-55
2023/08/10 05:22:21;;;;;;;1999.90;999.90;;;;;;;16.02;100.00;94527.34;5004996;28;20227;-56
2023/08/10 05:24:46;;;;;;;1999.90;999.90;;;;;;;16.07;100.00;94523.22;5005048;28;20213;-55
2023/08/10 05:27:11;;;;;;;1999.90;999.90;;;;;;;16.14;100.00;94523.66;5005002;28;20199;-56
2023/08/10 05:29:37;;;;;;;1999.90;999.90;;;;;;;16.17;100.00;94516.47;5004761;28;20231;-53
2023/08/10 05:32:02;;;;;;;1999.90;999.90;;;;;;;16.77;100.00;94494.47;5004533;28;20215;-53
2023/08/10 05:34:28;;;;;;;1999.90;999.90;;;;;;;17.73;100.00;94461.78;5004501;28;20211;-58
2023/08/10 05:36:53;;;;;;;1999.90;999.90;;;;;;;18.39;100.00;94463.09;5004818;28;20199;-54
2023/08/10 05:39:19;;;;;;;1999.90;999.90;;;;;;;19.04;100.00;94446.81;5004772;28;20210;-54
2023/08/10 05:41:44;;;;;;;1999.90;999.90;;;;;;;19.11;100.00;94465.03;5004593;28;20227;-56
2023/08/10 05:44:12;;;;;;;1999.90;999.90;;;;;;;18.98;100.00;94481.19;5004652;28;20246;-55
2023/08/10 05:46:37;;;;;;;1999.90;999.90;;;;;;;18.86;100.00;94462.88;5004787;28;20196;-58
2023/08/10 05:49:03;;;;;;;1999.90;999.90;;;;;;;18.99;100.00;94457.81;5004764;28;20242;-58
2023/08/10 05:51:28;;;;;;;1999.90;999.90;;;;;;;18.82;100.00;94485.22;5004586;28;20277;-58
2023/08/10 05:53:53;;;;;;;1999.90;999.90;;;;;;;19.18;100.00;94517.22;5004216;28;20199;-58
2023/08/10 05:56:20;;;;;;;1999.90;999.90;;;;;;;19.90;100.00;94632.72;5004512;28;20199;-58
2023/08/10 05:58:45;;;;;;;1999.90;999.90;;;;;;;20.23;100.00;94943.84;5004153;28;20245;-58
2023/08/10 06:01:11;;;;;;;1999.90;999.90;;;;;;;20.62;100.00;95233.94;5004030;28;20199;-57
2023/08/10 06:03:37;;;;;;;1999.90;999.90;;;;;;;21.29;100.00;95433.34;5004324;28;20191;-58
2023/08/10 06:06:06;;;;;;;1999.90;999.90;;;;;;;21.53;100.00;95548.09;5004042;28;20210;-58
2023/08/10 06:08:32;;;;;;;1999.90;999.90;;;;;;;22.18;100.00;95603.72;5004690;28;20204;-59
2023/08/10 06:10:57;;;;;;;1999.90;999.90;;;;;;;22.15;100.00;95669.41;5004592;28;20271;-58
2023/08/10 06:13:22;;;;;;;1999.90;999.90;;;;;;;22.61;100.00;95699.84;5004211;28;20218;-58
2023/08/10 06:15:48;;;;;;;1999.90;999.90;;;;;;;22.89;100.00;95717.88;5004600;28;20219;-59
2023/08/10 06:18:13;;;;;;;1999.90;999.90;;;;;;;23.58;100.00;95746.91;5004152;28;20187;-58
2023/08/10 06:20:40;;;;;;;1999.90;999.90;;;;;;;23.94;100.00;95759.75;5004471;28;20191;-58
2023/08/10 06:23:06;;;;;;;1999.90;999.90;;;;;;;24.03;100.00;95785.56;5003956;28;20196;-59
2023/08/10 06:25:32;;;;;;;1999.90;999.90;;;;;;;24.28;100.00;95789.78;5004012;28;20196;-58
2023/08/10 06:28:00;;;;;;;1999.90;999.90;;;;;;;24.88;100.00;95801.16;5004264;28;20203;-59
2023/08/10 06:30:25;;;;;;;1999.90;999.90;;;;;;;25.08;100.00;95801.19;5004466;28;20226;-58
2023/08/10 06:32:51;;;;;;;1999.90;999.90;;;;;;;25.49;100.00;95815.97;5003984;28;20203;-59
2023/08/10 06:35:18;;;;;;;1999.90;999.90;;;;;;;26.33;100.00;95813.59;5004161;28;20192;-58
2023/08/10 06:37:44;;;;;;;1999.90;999.90;;;;;;;26.35;100.00;95825.84;5004515;28;20262;-58
2023/08/10 06:40:10;;;;;;;1999.90;999.90;;;;;;;26.33;100.00;95831.16;5004214;28;20192;-59
2023/08/10 06:42:36;;;;;;;1999.90;999.90;;;;;;;25.52;100.00;95826.94;5004279;28;20243;-59
2023/08/10 06:45:03;;;;;;;1999.90;999.90;;;;;;;25.77;100.00;95823.44;5003989;28;20206;-58
2023/08/10 06:47:29;;;;;;;1999.90;999.90;;;;;;;26.04;100.00;95834.19;5004491;28;20192;-58
2023/08/10 06:49:55;;;;;;;1999.90;999.90;;;;;;;26.59;100.00;95840.34;5004308;28;20222;-59
2023/08/10 06:52:20;;;;;;;1999.90;999.90;;;;;;;26.18;100.00;95841.72;5003838;28;20208;-58
2023/08/10 06:54:45;;;;;;;1999.90;999.90;;;;;;;27.27;100.00;95843.91;5003877;28;20219;-58
2023/08/10 06:57:11;;;;;;;1999.90;999.90;;;;;;;26.17;100.00;95848.59;5003936;28;20267;-58
2023/08/10 06:59:36;;;;;;;1999.90;999.90;;;;;;;26.15;100.00;95848.31;5003989;28;20199;-58
2023/08/10 07:02:01;;;;;;;1999.90;999.90;;;;;;;27.27;100.00;95849.53;5003951;28;20195;-59
2023/08/10 07:04:27;;;;;;;1999.90;999.90;;;;;;;26.76;100.00;95857.28;5003886;28;20184;-58
2023/08/10 07:06:53;;;;;;;1999.90;999.90;;;;;;;26.63;100.00;95852.13;5003917;28;20258;-59
2023/08/10 07:09:19;;;;;;;1999.90;999.90;;;;;;;26.44;100.00;95850.88;5004186;28;20196;-59
2023/08/10 07:11:44;;;;;;;1999.90;999.90;;;;;;;25.76;100.00;95849.91;5004046;28;20251;-60
2023/08/10 07:14:10;;;;;;;1999.90;999.90;;;;;;;26.66;100.00;95845.50;5004163;28;20223;-59
2023/08/10 07:16:35;;;;;;;1999.90;999.90;;;;;;;27.45;100.00;95843.50;5004597;28;20188;-58
2023/08/10 07:19:01;;;;;;;1999.90;999.90;;;;;;;28.19;100.00;95842.00;5007888;28;20226;-59
2023/08/10 07:21:26;;;;;;;1999.90;999.90;;;;;;;28.46;100.00;95842.56;5007394;28;20214;-59
2023/08/10 07:23:51;;;;;;;1999.90;999.90;;;;;;;29.18;100.00;95854.59;5007235;28;20203;-59
2023/08/10 07:26:16;;;;;;;1999.90;999.90;;;;;;;30.34;100.00;95852.16;5007156;28;20203;-59
2023/08/10 07:28:43;;;;;;;1999.90;999.90;;;;;;;30.45;99.15;95863.38;5007001;28;20199;-59
2023/08/10 07:31:09;;;;;;;1999.90;999.90;;;;;;;31.85;90.98;95856.75;5006880;28;20191;-59
2023/08/10 07:33:34;;;;;;;1999.90;999.90;;;;;;;31.29;81.00;95858.63;5007109;28;20191;-59
2023/08/10 07:35:59;;;;;;;1999.90;999.90;;;;;;;30.81;82.86;95856.47;5007248;28;20210;-59
2023/08/10 07:38:25;;;;;;;1999.90;999.90;;;;;;;30.11;91.39;95861.97;5006713;28;20193;-59
2023/08/10 07:40:50;;;;;;;1999.90;999.90;;;;;;;29.85;95.94;95851.09;5006968;28;20255;-59
2023/08/10 07:43:17;;;;;;;1999.90;999.90;;;;;;;28.94;100.00;95854.34;5006753;28;20208;-59
2023/08/10 07:45:42;;;;;;;1999.90;999.90;;;;;;;28.48;100.00;95860.50;5007360;28;20168;-59
2023/08/10 07:48:07;;;;;;;1999.90;999.90;;;;;;;29.13;100.00;95858.97;5006698;28;20192;-59
2023/08/10 07:50:33;;;;;;;1999.90;999.90;;;;;;;30.26;96.36;95862.47;5006945;28;20223;-59
2023/08/10 07:52:58;;;;;;;1999.90;999.90;;;;;;;30.91;86.17;95866.13;5007017;28;20244;-59
2023/08/10 07:55:24;;;;;;;1999.90;999.90;;;;;;;30.47;80.53;95872.84;5006472;28;20191;-58
2023/08/10 07:57:50;;;;;;;1999.90;999.90;;;;;;;29.76;87.18;95870.34;5006676;28;20253;-60
2023/08/10 08:00:16;;;;;;;1999.90;999.90;;;;;;;29.40;91.95;95875.03;5007052;28;20196;-58
2023/08/10 08:02:41;;;;;;;1999.90;999.90;;;;;;;29.47;89.35;95870.94;5006210;28;20306;-58
2023/08/10 08:05:07;;;;;;;1999.90;999.90;;;;;;;30.10;91.49;95875.34;5006251;28;20199;-59
2023/08/10 08:07:32;;;;;;;1999.90;999.90;;;;;;;30.66;84.48;95878.59;5006885;28;20233;-59
2023/08/10 08:09:59;;;;;;;1999.90;999.90;;;;;;;28.91;92.64;95880.72;5006813;28;20223;-59
2023/08/10 08:12:27;;;;;;;1999.90;999.90;;;;;;;28.50;93.96;95880.41;5006371;28;20219;-60
2023/08/10 08:14:54;;;;;;;1999.90;999.90;;;;;;;27.47;100.00;95885.09;5006863;28;20251;-59
2023/08/10 08:17:19;;;;;;;1999.90;999.90;;;;;;;26.62;100.00;95881.38;5006146;28;20206;-59
2023/08/10 08:19:45;;;;;;;1999.90;999.90;;;;;;;26.90;100.00;95876.78;5006170;28;20266;-59
2023/08/10 08:22:10;;;;;;;1999.90;999.90;;;;;;;27.06;100.00;95887.34;5006070;28;20199;-58
2023/08/10 08:24:35;;;;;;;1999.90;999.90;;;;;;;29.04;94.44;95883.78;5006245;28;20196;-59
2023/08/10 08:27:01;;;;;;;1999.90;999.90;;;;;;;29.72;87.58;95875.50;5005989;28;20203;-59
2023/08/10 08:29:26;;;;;;;1999.90;999.90;;;;;;;30.26;84.73;95885.03;5005902;28;20200;-59
2023/08/10 08:31:51;;;;;;;1999.90;999.90;;;;;;;31.59;69.66;95884.75;5005956;28;20262;-60
2023/08/10 08:34:17;;;;;;;1999.90;999.90;;;;;;;31.09;60.81;95888.03;5005905;28;20188;-59
2023/08/10 08:36:42;;;;;;;1999.90;999.90;;;;;;;30.40;65.44;95889.53;5005755;28;20187;-59
2023/08/10 08:39:09;;;;;;;1999.90;999.90;;;;;;;30.77;66.27;95889.84;5005500;28;20266;-59
2023/08/10 08:41:37;;;;;;;1999.90;999.90;;;;;;;31.40;67.61;95881.09;5005656;28;20188;-59
2023/08/10 08:44:04;;;;;;;1999.90;999.90;;;;;;;32.15;68.23;95883.59;5005523;28;20283;-60
2023/08/10 08:46:31;;;;;;;1999.90;999.90;;;;;;;32.15;65.57;95886.44;5005588;28;20183;-60
2023/08/10 08:48:57;;;;;;;1999.90;999.90;;;;;;;31.21;52.29;95900.78;5006085;28;20246;-59
2023/08/10 08:51:23;;;;;;;1999.90;999.90;;;;;;;30.51;60.29;95901.53;5005797;28;20212;-60
2023/08/10 08:53:51;;;;;;;1999.90;999.90;;;;;;;30.93;58.58;95886.91;5005256;28;20206;-58
2023/08/10 08:56:16;;;;;;;1999.90;999.90;;;;;;;30.41;58.05;95900.31;5005388;28;20192;-58
2023/08/10 08:58:42;;;;;;;1999.90;999.90;;;;;;;30.24;61.99;95893.22;5005369;28;20263;-60
2023/08/10 09:01:10;;;;;;;1999.90;999.90;;;;;;;30.36;55.94;95894.69;5005359;28;20196;-59
2023/08/10 09:03:35;;;;;;;1999.90;999.90;;;;;;;30.41;54.63;95891.84;5005356;28;20238;-59
2023/08/10 09:06:01;;;;;;;1999.90;999.90;;;;;;;30.19;53.94;95896.84;5005303;28;20195;-59
2023/08/10 09:08:27;;;;;;;1999.90;999.90;;;;;;;29.37;59.40;95892.19;5005361;28;20208;-59
2023/08/10 09:10:53;;;;;;;1999.90;999.90;;;;;;;28.60;61.91;95889.38;5005690;28;20192;-60
2023/08/10 09:13:21;;;;;;;1999.90;999.90;;;;;;;27.54;67.45;95891.00;5005418;28;20220;-59
2023/08/10 09:16:02;;;;;;;1999.90;999.90;;;;;;;27.25;70.27;95891.34;5005595;28;20207;-59
2023/08/10 09:18:35;;;;;;;1999.90;999.90;;;;;;;28.05;65.73;95885.13;5005246;28;20307;-59
2023/08/10 09:21:17;;;;;;;1999.90;999.90;;;;;;;28.93;63.45;95878.13;5005291;28;20274;-59
2023/08/10 09:23:45;;;;;;;1999.90;999.90;;;;;;;29.24;62.79;95887.09;5005082;28;20202;-59
2023/08/10 09:26:12;;;;;;;1999.90;999.90;;;;;;;30.25;58.35;95877.84;5004841;28;20200;-58
2023/08/10 09:28:38;;;;;;;1999.90;999.90;;;;;;;30.39;56.18;95876.72;5005628;28;20253;-59
2023/08/10 09:31:07;;;;;;;1999.90;999.90;;;;;;;28.88;61.35;95878.91;5004738;28;20200;-59
2023/08/10 09:33:34;;;;;;;1999.90;999.90;;;;;;;27.85;63.27;95871.28;5005178;28;20188;-61
2023/08/10 09:36:00;;;;;;;1999.90;999.90;;;;;;;28.97;62.63;95870.19;5005152;28;20251;-59
2023/08/10 09:38:26;;;;;;;1999.90;999.90;;;;;;;28.05;62.72;95878.75;5004850;28;20210;-58
2023/08/10 09:41:07;;;;;;;1999.90;999.90;;;;;;;28.00;60.53;95883.06;5004570;28;20196;-60
2023/08/10 09:43:32;;;;;;;1999.90;999.90;;;;;;;28.45;60.83;95875.56;5004641;28;20208;-59
2023/08/10 09:46:05;;;;;;;1999.90;999.90;;;;;;;29.50;61.84;95875.53;5004627;28;20271;-59
2023/08/10 09:48:41;;;;;;;1999.90;999.90;;;;;;;29.44;59.34;95869.13;5004686;28;20195;-58
2023/08/10 09:51:08;;;;;;;1999.90;999.90;;;;;;;29.84;58.52;95871.34;5004422;28;20191;-59
2023/08/10 09:53:34;;;;;;;1999.90;999.90;;;;;;;28.77;57.34;95876.09;5004663;28;20196;-60
2023/08/10 09:56:00;;;;;;;1999.90;999.90;;;;;;;28.61;60.74;95868.41;5004376;28;20206;-60
2023/08/10 09:58:27;;;;;;;1999.90;999.90;;;;;;;29.36;59.83;95870.97;5004824;28;20178;-59
2023/08/10 10:00:52;;;;;;;1999.90;999.90;;;;;;;29.41;56.27;95870.94;5004708;28;20351;-59
2023/08/10 10:03:20;;;;;;;1999.90;999.90;;;;;;;29.74;55.25;95868.06;5004792;28;20194;-59
2023/08/10 10:05:48;;;;;;;1999.90;999.90;;;;;;;30.82;54.58;95863.66;5004605;28;20195;-60
2023/08/10 10:08:13;;;;;;;1999.90;999.90;;;;;;;31.69;55.28;95871.81;5004309;28;20188;-60
2023/08/10 10:10:41;;;;;;;1999.90;999.90;;;;;;;32.06;50.23;95866.25;5004132;28;20199;-60
2023/08/10 10:13:11;;;;;;;1999.90;999.90;;;;;;;31.87;49.77;95859.81;5003913;28;20287;-59
2023/08/10 10:15:38;;;;;;;1999.90;999.90;;;;;;;30.83;50.94;95865.94;5004460;28;20196;-59
2023/08/10 10:18:05;;;;;;;1999.90;999.90;;;;;;;28.63;49.71;95865.84;5004194;28;20223;-60
2023/08/10 10:20:31;;;;;;;1999.90;999.90;;;;;;;28.71;58.12;95861.25;5004352;28;20196;-59
2023/08/10 10:22:58;;;;;;;1999.90;999.90;;;;;;;28.25;57.46;95854.03;5004479;28;20196;-59
2023/08/10 10:25:23;;;;;;;1999.90;999.90;;;;;;;27.72;56.58;95862.50;5004319;28;20226;-59
2023/08/10 10:27:52;;;;;;;1999.90;999.90;;;;;;;27.08;65.53;95865.19;5004338;28;20199;-59
2023/08/10 10:30:21;;;;;;;1999.90;999.90;;;;;;;28.10;60.35;95853.47;5004448;28;20196;-59
2023/08/10 10:32:51;;;;;;;1999.90;999.90;;;;;;;28.07;56.42;95865.72;5004466;28;20211;-60
2023/08/10 10:35:24;;;;;;;1999.90;999.90;;;;;;;27.88;58.60;95850.59;5004280;28;20235;-58
2023/08/10 10:37:57;;;;;;;1999.90;999.90;;;;;;;27.10;62.12;95857.03;5004451;28;20202;-58
2023/08/10 10:40:24;;;;;;;1999.90;999.90;;;;;;;26.31;69.09;95856.13;5004107;28;20192;-58
2023/08/10 10:43:09;;;;;;;1999.90;999.90;;;;;;;27.80;63.84;95855.16;5003977;28;20208;-59
2023/08/10 10:45:42;;;;;;;1999.90;999.90;;;;;;;29.42;55.82;95846.38;5004450;28;20195;-60
2023/08/10 10:48:10;;;;;;;1999.90;999.90;;;;;;;30.77;52.60;95850.34;5003951;28;20195;-59